Terminal Aerodrome Forecast
Issued by NWS Twin Cities, MN

Home | Current Version | Previous Version | Graphics & Text | Print | Product List | Glossary On
Versions: 1 2 3 4 5 6 7 8 9 10 11 12 13 14 15 16 17 18 19 20 21 22 23 24 25 26
000
FTUS43 KMPX 232321
TAFMSP
TAF
KMSP 232321Z 2400/2506 VRB05KT P6SM SCT300
     FM240600 11006KT P6SM BKN100
     FM241200 12011KT P6SM OVC050
     FM241800 12013G18KT 6SM -SHRA OVC035
     FM250000 11012KT 5SM -SHRA BR OVC015=

USA.gov is the U.S. government's official web portal to all federal, state and local government web resources and services.